Terminal Aerodrome Forecast
Issued by NWS Twin Cities, MN

Home | Current Version | Previous Version | Graphics & Text | Print | Product List | Glossary On
Versions: 1 2 3 4 5 6 7 8 9 10 11 12 13 14 15 16 17 18 19 20 21 22 23 24 25 26 27 28 29 30
000
FTUS43 KMPX 170500
TAFMSP
TAF
KMSP 170520Z 1706/1812 07007KT P6SM VCSH SCT030 BKN070
     FM171000 09005KT 6SM BR SCT008 BKN012
      TEMPO 1710/1714 4SM BR BKN008
     FM171500 10006KT P6SM SCT015 BKN025
     FM171900 12008KT P6SM VCTS SCT030CB OVC040 PROB30 1719/1724 5SM
      SHRA OVC030
     FM180000 11006KT P6SM SCT020 OVC035=

USA.gov is the U.S. government's official web portal to all federal, state and local government web resources and services.